Flight Track Log - Related Links

Times and Time Zones

All times are in EDT time to prevent confusion due to time zone crossing. See the N16112 flight status page for this flight to view local times or setup timezone preferences in your user account.

Time Position Orientation Groundspeed Altitude Reporting Facility
EDT Latitude Longitude Course Direction KTS MPH feet Rate Location/Type
Fri 02:50:09 PM 29.9594 -95.3414 97° East 162 186 600  Level Houston Center
Fri 02:51:53 PM 29.9303 -95.2317 107° East 265 305 3,700 1,659 Climbing Houston Center
Fri 02:52:12 PM 29.9300 -95.2181 91° East 239 275 4,000 295 Climbing Houston Center
Fri 02:52:54 PM 29.9261 -95.1406 93° East 273 314 4,000 97 Level Houston Center
Fri 02:53:00 PM 29.9101 -94.7870 95° East  Level FlightAware Approximate
Fri 02:53:14 PM 29.9267 -95.1286 87° East 274 315 4,100  Level Houston Center
Fri 02:54:00 PM 29.8981 -94.6494 97° East  Level FlightAware Approximate
Fri 02:54:16 PM 29.9178 -95.0244 96° East 272 313 6,200  Level Houston Center
Fri 02:55:00 PM 29.8829 -94.5123 97° East  Level FlightAware Approximate
Fri 02:55:18 PM 29.9108 -94.9356 95° East 278 320 9,000  Level Houston Center
Fri 02:56:21 PM 29.9039 -94.8400 95° East 294 338 10,500 1,008 Climbing Houston Center
Fri 02:57:23 PM 29.8950 -94.7261 95° East 350 403 11,100 919 Climbing Houston Center
Fri 02:58:25 PM 29.8850 -94.6017 95° East 385 443 12,400 1,403 Climbing Houston Center
Fri 02:59:27 PM 29.8753 -94.4758 95° East 392 451 14,000 1,452 Climbing Houston Center
Fri 03:00:29 PM 29.8644 -94.3508 96° East 393 452 15,400 1,258 Climbing Houston Center
Fri 03:01:31 PM 29.8597 -94.1989 92° East 397 457 16,600 1,016 Climbing Houston Center
Fri 03:02:33 PM 29.8550 -94.0808 93° East 405 466 17,500 768 Climbing Houston Center
Fri 03:03:36 PM 29.8642 -93.9506 85° East 410 472 18,200 864 Climbing Houston Center
Fri 03:04:38 PM 29.8800 -93.7922 83° East 418 481 19,300 1,016 Climbing Houston Center
Fri 03:05:40 PM 29.8944 -93.6586 83° East 421 484 20,300 968 Climbing Houston Center
Fri 03:06:42 PM 29.9075 -93.5244 84° East 425 489 21,300 968 Climbing Houston Center
Fri 03:07:44 PM 29.9219 -93.3872 83° East 429 494 22,300 1,016 Climbing Houston Center
Fri 03:08:46 PM 29.9378 -93.2253 84° East 432 497 23,400 1,016 Climbing Houston Center
Fri 03:09:48 PM 29.9519 -93.0889 83° East 434 499 24,400 968 Climbing Houston Center
Fri 03:10:50 PM 29.9658 -92.9514 83° East 435 501 25,400 960 Climbing Houston Center
Fri 03:11:53 PM 29.9783 -92.8128 84° East 437 503 26,400 912 Climbing Houston Center
Fri 03:12:55 PM 29.9892 -92.6725 85° East 440 506 27,300 1,016 Climbing Houston Center
Fri 03:13:57 PM 30.0119 -92.5078 81° East 437 503 28,500 1,065 Climbing Houston Center
Fri 03:14:59 PM 30.0389 -92.3703 77° East 441 507 29,500 968 Climbing Houston Center
Fri 03:16:01 PM 30.0650 -92.2319 78° East 443 510 30,500 968 Climbing Houston Center
Fri 03:17:03 PM 30.0914 -92.0922 78° East 447 514 31,500 919 Climbing Houston Center
Fri 03:18:05 PM 30.1161 -91.9519 78° East 448 516 32,400 919 Climbing Houston Center
Fri 03:19:07 PM 30.1444 -91.8094 77° East 455 524 33,400 1,056 Climbing Houston Center
Fri 03:20:10 PM 30.1742 -91.6375 79° East 452 520 34,600 768 Climbing Houston Center
Fri 03:21:12 PM 30.2003 -91.4953 78° East 453 521 35,000 194 Climbing Houston Center
Fri 03:22:14 PM 30.2283 -91.3469 78° East 467 537 35,000  Level Houston Center
Fri 03:23:16 PM 30.2558 -91.1947 78° East 480 552 35,000  Level Houston Center
Fri 03:24:18 PM 30.2839 -91.0397 78° East 490 564 35,000  Level Houston Center
Fri 03:25:20 PM 30.3108 -90.8828 79° East 498 573 35,000  Level Houston Center
Fri 03:26:22 PM 30.3433 -90.6947 79° East 496 571 35,000  Level Houston Center
Fri 03:27:24 PM 30.3706 -90.5389 79° East 495 570 35,000  Level Houston Center
Fri 03:28:27 PM 30.3981 -90.3811 79° East 499 574 35,000  Level Houston Center
Fri 03:29:29 PM 30.4247 -90.2242 79° East 498 573 35,000  Level Houston Center
Fri 03:30:31 PM 30.4514 -90.0653 79° East 499 574 35,000  Level Houston Center
Fri 03:31:33 PM 30.4786 -89.9050 79° East 501 577 35,000  Level Houston Center
Fri 03:32:35 PM 30.5064 -89.7425 79° East 500 575 35,000  Level Houston Center
Fri 03:33:37 PM 30.5317 -89.5806 80° East 501 577 35,000  Level Houston Center
Fri 03:34:39 PM 30.5625 -89.3914 79° East 496 571 35,000  Level Houston Center
Fri 03:35:41 PM 30.5872 -89.2306 80° East 505 581 35,000  Level Houston Center
Fri 03:36:44 PM 30.6114 -89.0722 80° East 500 575 35,000  Level Houston Center
Fri 03:37:46 PM 30.6358 -88.9225 79° East 499 574 35,000  Level Houston Center
Fri 03:38:48 PM 30.6658 -88.7328 80° East 501 577 35,000  Level Houston Center
Fri 03:39:50 PM 30.6900 -88.5744 80° East 500 575 35,000  Level Houston Center
Fri 03:40:52 PM 30.7175 -88.4053 79° East 502 578 35,000  Level Houston Center
Fri 03:41:54 PM 30.7331 -88.2431 84° East 504 580 35,000  Level Houston Center
Fri 03:42:56 PM 30.7425 -88.0794 86° East 508 585 35,000  Level Houston Center
Fri 03:43:58 PM 30.7536 -87.9167 85° East 506 582 35,000  Level Houston Center
Fri 03:44:28 PM 30.7572 -87.8333 87° East 513 590 35,000  Level Jacksonville Center
Fri 03:45:28 PM 30.7678 -87.6694 86° East 508 585 35,000  Level Jacksonville Center
Fri 03:46:28 PM 30.7758 -87.5081 87° East 502 578 35,000  Level Jacksonville Center
Fri 03:47:28 PM 30.7733 -87.3411 91° East 502 578 35,000  Level Jacksonville Center
Fri 03:48:28 PM 30.7686 -87.1789 92° East 502 578 35,000  Level Jacksonville Center
Fri 03:49:28 PM 30.7656 -87.0119 91° East 508 585 35,000  Level Jacksonville Center
Fri 03:50:28 PM 30.7606 -86.8475 92° East 513 590 35,000  Level Jacksonville Center
Fri 03:51:28 PM 30.7550 -86.6828 92° East 513 590 35,000  Level Jacksonville Center
Fri 03:52:28 PM 30.7494 -86.5158 92° East 513 590 35,000  Level Jacksonville Center
Fri 03:53:28 PM 30.7436 -86.3511 92° East 513 590 35,000  Level Jacksonville Center
Fri 03:54:28 PM 30.7397 -86.1819 91° East 518 596 35,000  Level Jacksonville Center
Fri 03:55:28 PM 30.7336 -86.0053 92° East 518 596 35,000  Level Jacksonville Center
Fri 03:56:28 PM 30.7272 -85.8383 93° East 512 589 35,000  Level Jacksonville Center
Fri 03:57:28 PM 30.7206 -85.6667 93° East 517 595 35,000  Level Jacksonville Center
Fri 03:58:28 PM 30.7158 -85.5022 92° East 517 595 35,000  Level Jacksonville Center
Fri 03:59:28 PM 30.7483 -85.3411 77° East 514 592 35,000  Level Jacksonville Center
Fri 04:00:28 PM 30.7783 -85.1822 78° East 514 592 35,000 -250 Level Jacksonville Center
Fri 04:01:28 PM 30.8061 -85.0258 78° East 501 577 34,500 -750 Descending Jacksonville Center
Fri 04:02:28 PM 30.8358 -84.8667 78° East 496 571 33,500 -900 Descending Jacksonville Center
Fri 04:03:28 PM 30.8608 -84.7244 78° East 496 571 32,700 -900 Descending Jacksonville Center
Fri 04:04:28 PM 30.8464 -84.5622 96° East 496 571 31,700 -750 Descending Jacksonville Center
Fri 04:05:28 PM 30.8233 -84.3997 99° East 501 577 31,200 -350 Descending Jacksonville Center
Fri 04:06:28 PM 30.7939 -84.2347 102° East 506 582 31,000 -100 Descending Jacksonville Center
Fri 04:07:28 PM 30.7683 -84.0747 100° East 506 582 31,000  Level Jacksonville Center
Fri 04:08:28 PM 30.7428 -83.9125 100° East 506 582 31,000  Level Jacksonville Center
Fri 04:09:28 PM 30.7147 -83.7553 102° East 506 582 31,000  Level Jacksonville Center
Fri 04:10:28 PM 30.6883 -83.5956 101° East 506 582 31,000 -150 Level Jacksonville Center
Fri 04:11:28 PM 30.6581 -83.4214 101° East 506 582 30,700 -800 Descending Jacksonville Center
Fri 04:12:28 PM 30.6314 -83.2644 101° East 506 582 29,400 -1,850 Descending Jacksonville Center
Fri 04:13:28 PM 30.5961 -83.1122 105° East 500 575 27,000 -1,200 Descending Jacksonville Center
Fri 04:14:28 PM 30.5211 -83.0058 129° Southeast 474 545 27,000 -500 Level Jacksonville Center
Fri 04:15:28 PM 30.4189 -82.9022 139° Southeast 469 540 26,000 -800 Descending Jacksonville Center
Fri 04:16:28 PM 30.3186 -82.8011 139° Southeast 469 540 25,400 -500 Descending Jacksonville Center
Fri 04:17:28 PM 30.2164 -82.6978 139° Southeast 482 555 25,000 -200 Descending Jacksonville Center
Fri 04:18:28 PM 30.1011 -82.5878 140° Southeast 492 566 25,000  Level Jacksonville Center
Fri 04:19:28 PM 30.0111 -82.4919 137° Southeast 486 559 25,000  Level Jacksonville Center
Fri 04:20:28 PM 29.8961 -82.4133 149° Southeast 481 554 25,000 -900 Level Jacksonville Center
Fri 04:21:28 PM 29.7769 -82.3589 158° South 472 543 23,200 -1,950 Descending Jacksonville Center
Fri 04:22:28 PM 29.6617 -82.3047 158° South 461 531 21,100 -2,050 Descending Jacksonville Center
Fri 04:23:28 PM 29.5531 -82.2503 156° South 443 510 19,100 -1,850 Descending Jacksonville Center
Fri 04:24:28 PM 29.4419 -82.1986 158° South 438 504 17,400 -1,650 Descending Jacksonville Center
Fri 04:25:28 PM 29.3353 -82.1469 157° South 426 490 15,800 -1,350 Descending Jacksonville Center
Fri 04:26:28 PM 29.2286 -82.0978 158° South 421 484 14,700 -1,050 Descending Jacksonville Center
Fri 04:27:28 PM 29.1239 -82.0486 158° South 416 479 13,700 -1,050 Descending Jacksonville Center
Fri 04:28:28 PM 29.0233 -81.9997 157° South 411 473 12,600 -1,150 Descending Jacksonville Center
Fri 04:29:28 PM 28.9186 -81.9486 157° South 392 451 11,400 -800 Descending Jacksonville Center
Fri 04:30:28 PM 28.8492 -81.8756 137° Southeast 355 409 11,000 -164 Descending Jacksonville Center
Fri 04:31:18 PM 28.8000 -81.8000 127° Southeast 345 397 11,100 58 Climbing Orlando TRACON
Fri 04:32:12 PM 28.7667 -81.7167 115° Southeast 341 392 11,100 -111 Level Orlando TRACON
Fri 04:33:06 PM 28.7167 -81.6333 124° Southeast 346 398 10,900 -470 Descending Orlando TRACON
Fri 04:34:07 PM 28.6667 -81.5500 124° Southeast 292 336 10,200 -714 Descending Orlando TRACON
Fri 04:35:12 PM 28.6167 -81.4667 124° Southeast 295 339 9,400 -571 Descending Orlando TRACON
Fri 04:36:13 PM 28.5500 -81.4167 147° Southeast 253 291 9,000 -744 Descending Orlando TRACON
Fri 04:37:13 PM 28.4833 -81.4167 180° South 237 273 7,900 -1,684 Descending Orlando TRACON
Fri 04:38:07 PM 28.4333 -81.4167 180° South 257 296 5,800 -2,111 Descending Orlando TRACON
Fri 04:39:01 PM 28.3667 -81.4167 180° South 256 295 4,100 -1,889 Descending Orlando TRACON

Login

Don't have an account? Register now (free) for customized features, flight alerts, and more!